sensor_id;sensor_type;location;lat;lon;timestamp;P1;durP1;ratioP1;P2;durP2;ratioP2
28625;SDS011;18905;42.668;23.364;2023-05-19T00:01:07;11.70;;;7.28;;
28625;SDS011;18905;42.668;23.364;2023-05-19T00:03:34;13.40;;;8.35;;
28625;SDS011;18905;42.668;23.364;2023-05-19T00:06:04;12.93;;;8.05;;
28625;SDS011;18905;42.668;23.364;2023-05-19T00:08:32;15.35;;;7.82;;
28625;SDS011;18905;42.668;23.364;2023-05-19T00:10:58;12.88;;;7.95;;
28625;SDS011;18905;42.668;23.364;2023-05-19T00:13:25;10.25;;;8.00;;
28625;SDS011;18905;42.668;23.364;2023-05-19T00:15:52;12.52;;;8.38;;
28625;SDS011;18905;42.668;23.364;2023-05-19T00:18:17;13.55;;;8.10;;
28625;SDS011;18905;42.668;23.364;2023-05-19T00:20:43;12.55;;;8.13;;
28625;SDS011;18905;42.668;23.364;2023-05-19T00:23:09;11.20;;;7.90;;
28625;SDS011;18905;42.668;23.364;2023-05-19T00:25:34;15.50;;;7.72;;
28625;SDS011;18905;42.668;23.364;2023-05-19T00:28:00;10.07;;;7.55;;
28625;SDS011;18905;42.668;23.364;2023-05-19T00:30:27;14.75;;;9.00;;
28625;SDS011;18905;42.668;23.364;2023-05-19T00:32:53;11.45;;;8.15;;
28625;SDS011;18905;42.668;23.364;2023-05-19T00:35:18;11.90;;;8.45;;
28625;SDS011;18905;42.668;23.364;2023-05-19T00:37:44;18.10;;;8.20;;
28625;SDS011;18905;42.668;23.364;2023-05-19T00:40:09;10.52;;;7.63;;
28625;SDS011;18905;42.668;23.364;2023-05-19T00:42:35;12.15;;;8.52;;
28625;SDS011;18905;42.668;23.364;2023-05-19T00:45:01;12.48;;;8.50;;
28625;SDS011;18905;42.668;23.364;2023-05-19T00:47:26;13.75;;;8.95;;
28625;SDS011;18905;42.668;23.364;2023-05-19T00:49:51;11.95;;;8.50;;
28625;SDS011;18905;42.668;23.364;2023-05-19T00:52:17;12.32;;;8.05;;
28625;SDS011;18905;42.668;23.364;2023-05-19T00:54:43;13.80;;;8.05;;
28625;SDS011;18905;42.668;23.364;2023-05-19T00:57:10;13.15;;;8.60;;
28625;SDS011;18905;42.668;23.364;2023-05-19T00:59:37;12.95;;;8.93;;
28625;SDS011;18905;42.668;23.364;2023-05-19T01:02:03;19.00;;;9.00;;
28625;SDS011;18905;42.668;23.364;2023-05-19T01:04:28;13.30;;;8.98;;
28625;SDS011;18905;42.668;23.364;2023-05-19T01:06:59;14.02;;;9.40;;
28625;SDS011;18905;42.668;23.364;2023-05-19T01:09:24;13.65;;;9.73;;
28625;SDS011;18905;42.668;23.364;2023-05-19T01:11:50;17.30;;;10.20;;
28625;SDS011;18905;42.668;23.364;2023-05-19T01:14:16;12.90;;;8.85;;
28625;SDS011;18905;42.668;23.364;2023-05-19T01:16:45;11.40;;;9.30;;
28625;SDS011;18905;42.668;23.364;2023-05-19T01:19:59;14.80;;;9.65;;
28625;SDS011;18905;42.668;23.364;2023-05-19T01:30:36;20.85;;;12.55;;
28625;SDS011;18905;42.668;23.364;2023-05-19T01:33:03;20.48;;;12.15;;
28625;SDS011;18905;42.668;23.364;2023-05-19T01:35:33;17.15;;;11.68;;
28625;SDS011;18905;42.668;23.364;2023-05-19T01:38:00;17.80;;;12.27;;
28625;SDS011;18905;42.668;23.364;2023-05-19T01:40:27;18.38;;;12.73;;
28625;SDS011;18905;42.668;23.364;2023-05-19T01:42:56;19.48;;;13.07;;
28625;SDS011;18905;42.668;23.364;2023-05-19T01:45:23;20.92;;;13.43;;
28625;SDS011;18905;42.668;23.364;2023-05-19T01:47:51;18.35;;;13.75;;
28625;SDS011;18905;42.668;23.364;2023-05-19T01:50:18;18.40;;;12.82;;
28625;SDS011;18905;42.668;23.364;2023-05-19T01:52:44;18.15;;;12.25;;
28625;SDS011;18905;42.668;23.364;2023-05-19T01:55:09;22.00;;;12.63;;
28625;SDS011;18905;42.668;23.364;2023-05-19T02:00:28;22.95;;;12.23;;
28625;SDS011;18905;42.668;23.364;2023-05-19T02:03:08;21.98;;;13.75;;
28625;SDS011;18905;42.668;23.364;2023-05-19T02:05:53;24.27;;;14.93;;
28625;SDS011;18905;42.668;23.364;2023-05-19T02:08:33;22.23;;;14.80;;
28625;SDS011;18905;42.668;23.364;2023-05-19T02:11:32;25.60;;;14.73;;
28625;SDS011;18905;42.668;23.364;2023-05-19T02:14:47;21.70;;;14.02;;
28625;SDS011;18905;42.668;23.364;2023-05-19T02:17:08;19.33;;;13.45;;
28625;SDS011;18905;42.668;23.364;2023-05-19T02:19:37;23.55;;;13.10;;
28625;SDS011;18905;42.668;23.364;2023-05-19T02:22:04;25.00;;;14.48;;
28625;SDS011;18905;42.668;23.364;2023-05-19T02:24:29;17.30;;;12.95;;
28625;SDS011;18905;42.668;23.364;2023-05-19T02:26:55;21.80;;;13.73;;
28625;SDS011;18905;42.668;23.364;2023-05-19T02:29:20;21.48;;;13.32;;
28625;SDS011;18905;42.668;23.364;2023-05-19T02:31:46;21.10;;;13.73;;
28625;SDS011;18905;42.668;23.364;2023-05-19T02:34:11;25.42;;;13.93;;
28625;SDS011;18905;42.668;23.364;2023-05-19T02:36:38;24.00;;;14.50;;
28625;SDS011;18905;42.668;23.364;2023-05-19T02:39:07;26.65;;;15.23;;
28625;SDS011;18905;42.668;23.364;2023-05-19T02:41:36;23.35;;;13.43;;
28625;SDS011;18905;42.668;23.364;2023-05-19T02:44:02;21.15;;;14.13;;
28625;SDS011;18905;42.668;23.364;2023-05-19T02:46:28;24.50;;;14.60;;
28625;SDS011;18905;42.668;23.364;2023-05-19T02:48:54;22.38;;;14.45;;
28625;SDS011;18905;42.668;23.364;2023-05-19T02:51:20;24.35;;;14.10;;
28625;SDS011;18905;42.668;23.364;2023-05-19T02:53:45;22.83;;;14.30;;
28625;SDS011;18905;42.668;23.364;2023-05-19T02:56:10;22.73;;;14.43;;
28625;SDS011;18905;42.668;23.364;2023-05-19T02:58:36;22.52;;;15.07;;
28625;SDS011;18905;42.668;23.364;2023-05-19T03:01:02;23.00;;;14.52;;
28625;SDS011;18905;42.668;23.364;2023-05-19T03:03:27;27.55;;;15.82;;
28625;SDS011;18905;42.668;23.364;2023-05-19T03:05:52;23.83;;;14.68;;
28625;SDS011;18905;42.668;23.364;2023-05-19T03:08:18;27.27;;;14.23;;
28625;SDS011;18905;42.668;23.364;2023-05-19T03:10:44;26.35;;;13.63;;
28625;SDS011;18905;42.668;23.364;2023-05-19T03:13:10;24.77;;;14.75;;
28625;SDS011;18905;42.668;23.364;2023-05-19T03:15:36;26.30;;;15.27;;
28625;SDS011;18905;42.668;23.364;2023-05-19T03:18:02;27.67;;;15.43;;
28625;SDS011;18905;42.668;23.364;2023-05-19T03:20:27;28.45;;;15.15;;
28625;SDS011;18905;42.668;23.364;2023-05-19T03:22:55;23.95;;;14.70;;
28625;SDS011;18905;42.668;23.364;2023-05-19T03:25:22;31.30;;;15.30;;
28625;SDS011;18905;42.668;23.364;2023-05-19T03:27:47;24.67;;;15.73;;
28625;SDS011;18905;42.668;23.364;2023-05-19T03:30:13;26.88;;;15.77;;
28625;SDS011;18905;42.668;23.364;2023-05-19T03:32:38;23.63;;;14.80;;
28625;SDS011;18905;42.668;23.364;2023-05-19T03:35:04;20.10;;;14.15;;
28625;SDS011;18905;42.668;23.364;2023-05-19T03:37:30;23.50;;;14.95;;
28625;SDS011;18905;42.668;23.364;2023-05-19T03:39:56;23.33;;;14.43;;
28625;SDS011;18905;42.668;23.364;2023-05-19T03:42:22;23.58;;;14.63;;
28625;SDS011;18905;42.668;23.364;2023-05-19T03:44:48;22.35;;;13.73;;
28625;SDS011;18905;42.668;23.364;2023-05-19T03:47:13;25.90;;;17.20;;
28625;SDS011;18905;42.668;23.364;2023-05-19T03:49:39;22.02;;;14.93;;
28625;SDS011;18905;42.668;23.364;2023-05-19T03:52:04;22.92;;;14.93;;
28625;SDS011;18905;42.668;23.364;2023-05-19T03:54:30;23.05;;;15.40;;
28625;SDS011;18905;42.668;23.364;2023-05-19T03:56:55;25.33;;;14.75;;
28625;SDS011;18905;42.668;23.364;2023-05-19T03:59:21;24.65;;;15.45;;
28625;SDS011;18905;42.668;23.364;2023-05-19T04:01:47;21.80;;;14.55;;
28625;SDS011;18905;42.668;23.364;2023-05-19T04:04:13;24.38;;;14.00;;
28625;SDS011;18905;42.668;23.364;2023-05-19T04:06:38;25.08;;;15.07;;
28625;SDS011;18905;42.668;23.364;2023-05-19T04:09:09;21.15;;;14.02;;
28625;SDS011;18905;42.668;23.364;2023-05-19T04:11:36;19.83;;;14.10;;
28625;SDS011;18905;42.668;23.364;2023-05-19T04:14:03;19.98;;;13.27;;
28625;SDS011;18905;42.668;23.364;2023-05-19T04:16:29;23.60;;;13.45;;
28625;SDS011;18905;42.668;23.364;2023-05-19T04:18:54;21.70;;;14.30;;
28625;SDS011;18905;42.668;23.364;2023-05-19T04:21:20;20.98;;;13.07;;
28625;SDS011;18905;42.668;23.364;2023-05-19T04:23:46;18.90;;;12.98;;
28625;SDS011;18905;42.668;23.364;2023-05-19T04:26:12;17.20;;;12.40;;
28625;SDS011;18905;42.668;23.364;2023-05-19T04:28:38;21.85;;;13.60;;
28625;SDS011;18905;42.668;23.364;2023-05-19T04:31:06;21.75;;;13.23;;
28625;SDS011;18905;42.668;23.364;2023-05-19T04:33:35;21.33;;;12.82;;
28625;SDS011;18905;42.668;23.364;2023-05-19T04:36:01;21.13;;;12.73;;
28625;SDS011;18905;42.668;23.364;2023-05-19T04:38:29;18.90;;;11.75;;
28625;SDS011;18905;42.668;23.364;2023-05-19T04:40:55;27.25;;;13.68;;
28625;SDS011;18905;42.668;23.364;2023-05-19T04:43:20;17.60;;;12.27;;
28625;SDS011;18905;42.668;23.364;2023-05-19T04:45:46;18.70;;;12.35;;
28625;SDS011;18905;42.668;23.364;2023-05-19T04:48:14;17.55;;;12.80;;
28625;SDS011;18905;42.668;23.364;2023-05-19T04:50:39;18.02;;;12.60;;
28625;SDS011;18905;42.668;23.364;2023-05-19T04:53:07;19.05;;;13.18;;
28625;SDS011;18905;42.668;23.364;2023-05-19T04:55:33;20.58;;;13.50;;
28625;SDS011;18905;42.668;23.364;2023-05-19T04:57:58;20.98;;;13.23;;
28625;SDS011;18905;42.668;23.364;2023-05-19T05:00:24;19.42;;;12.43;;
28625;SDS011;18905;42.668;23.364;2023-05-19T05:02:49;18.60;;;12.18;;
28625;SDS011;18905;42.668;23.364;2023-05-19T05:05:15;17.67;;;12.10;;
28625;SDS011;18905;42.668;23.364;2023-05-19T05:07:41;21.33;;;13.18;;
28625;SDS011;18905;42.668;23.364;2023-05-19T05:10:06;20.02;;;12.75;;
28625;SDS011;18905;42.668;23.364;2023-05-19T05:12:33;21.52;;;12.15;;
28625;SDS011;18905;42.668;23.364;2023-05-19T05:14:59;19.33;;;12.45;;
28625;SDS011;18905;42.668;23.364;2023-05-19T05:17:24;17.08;;;12.20;;
28625;SDS011;18905;42.668;23.364;2023-05-19T05:19:51;19.70;;;12.25;;
28625;SDS011;18905;42.668;23.364;2023-05-19T05:22:16;18.63;;;11.95;;
28625;SDS011;18905;42.668;23.364;2023-05-19T05:24:42;22.13;;;12.07;;
28625;SDS011;18905;42.668;23.364;2023-05-19T05:27:08;16.60;;;11.07;;
28625;SDS011;18905;42.668;23.364;2023-05-19T05:29:34;17.88;;;11.77;;
28625;SDS011;18905;42.668;23.364;2023-05-19T05:31:59;16.42;;;12.25;;
28625;SDS011;18905;42.668;23.364;2023-05-19T05:34:25;17.10;;;12.15;;
28625;SDS011;18905;42.668;23.364;2023-05-19T05:36:50;20.65;;;12.38;;
28625;SDS011;18905;42.668;23.364;2023-05-19T05:39:16;20.70;;;11.95;;
28625;SDS011;18905;42.668;23.364;2023-05-19T05:41:41;18.95;;;11.65;;
28625;SDS011;18905;42.668;23.364;2023-05-19T05:44:06;18.27;;;12.25;;
28625;SDS011;18905;42.668;23.364;2023-05-19T05:46:32;15.77;;;10.90;;
28625;SDS011;18905;42.668;23.364;2023-05-19T05:48:57;17.17;;;11.70;;
28625;SDS011;18905;42.668;23.364;2023-05-19T05:51:23;16.80;;;11.20;;
28625;SDS011;18905;42.668;23.364;2023-05-19T05:53:50;19.20;;;10.80;;
28625;SDS011;18905;42.668;23.364;2023-05-19T05:56:18;21.73;;;11.02;;
28625;SDS011;18905;42.668;23.364;2023-05-19T05:58:44;19.02;;;12.00;;
28625;SDS011;18905;42.668;23.364;2023-05-19T06:01:10;19.50;;;10.35;;
28625;SDS011;18905;42.668;23.364;2023-05-19T06:03:39;15.90;;;10.65;;
28625;SDS011;18905;42.668;23.364;2023-05-19T06:06:05;19.13;;;10.88;;
28625;SDS011;18905;42.668;23.364;2023-05-19T06:08:31;16.98;;;11.55;;
28625;SDS011;18905;42.668;23.364;2023-05-19T06:10:57;14.10;;;9.93;;
28625;SDS011;18905;42.668;23.364;2023-05-19T06:13:22;23.20;;;12.85;;
28625;SDS011;18905;42.668;23.364;2023-05-19T06:15:50;16.35;;;10.18;;
28625;SDS011;18905;42.668;23.364;2023-05-19T06:18:16;15.82;;;9.88;;
28625;SDS011;18905;42.668;23.364;2023-05-19T06:20:41;21.95;;;9.88;;
28625;SDS011;18905;42.668;23.364;2023-05-19T06:23:07;23.40;;;9.40;;
28625;SDS011;18905;42.668;23.364;2023-05-19T06:25:33;14.90;;;9.27;;
28625;SDS011;18905;42.668;23.364;2023-05-19T06:27:58;13.25;;;9.15;;
28625;SDS011;18905;42.668;23.364;2023-05-19T06:30:23;13.25;;;8.52;;
28625;SDS011;18905;42.668;23.364;2023-05-19T06:32:49;13.35;;;8.63;;
28625;SDS011;18905;42.668;23.364;2023-05-19T06:35:14;16.40;;;8.50;;
28625;SDS011;18905;42.668;23.364;2023-05-19T06:37:40;13.70;;;6.95;;
28625;SDS011;18905;42.668;23.364;2023-05-19T06:40:06;11.82;;;8.48;;
28625;SDS011;18905;42.668;23.364;2023-05-19T06:42:34;15.38;;;8.93;;
28625;SDS011;18905;42.668;23.364;2023-05-19T06:45:00;11.55;;;7.65;;
28625;SDS011;18905;42.668;23.364;2023-05-19T06:47:25;11.80;;;7.38;;
28625;SDS011;18905;42.668;23.364;2023-05-19T06:49:51;11.82;;;7.85;;
28625;SDS011;18905;42.668;23.364;2023-05-19T06:52:19;17.77;;;7.95;;
28625;SDS011;18905;42.668;23.364;2023-05-19T06:54:45;14.82;;;6.85;;
28625;SDS011;18905;42.668;23.364;2023-05-19T06:57:11;10.35;;;7.18;;
28625;SDS011;18905;42.668;23.364;2023-05-19T06:59:36;12.25;;;6.72;;
28625;SDS011;18905;42.668;23.364;2023-05-19T07:02:04;12.63;;;7.50;;
28625;SDS011;18905;42.668;23.364;2023-05-19T07:04:31;12.65;;;7.30;;
28625;SDS011;18905;42.668;23.364;2023-05-19T07:06:56;10.90;;;6.97;;
28625;SDS011;18905;42.668;23.364;2023-05-19T07:09:22;13.57;;;6.40;;
28625;SDS011;18905;42.668;23.364;2023-05-19T07:11:48;8.45;;;5.82;;
28625;SDS011;18905;42.668;23.364;2023-05-19T07:14:13;12.52;;;7.10;;
28625;SDS011;18905;42.668;23.364;2023-05-19T07:16:38;13.68;;;7.35;;
28625;SDS011;18905;42.668;23.364;2023-05-19T07:19:04;10.85;;;7.40;;
28625;SDS011;18905;42.668;23.364;2023-05-19T07:21:29;17.08;;;8.65;;
28625;SDS011;18905;42.668;23.364;2023-05-19T07:23:55;14.15;;;7.47;;
28625;SDS011;18905;42.668;23.364;2023-05-19T07:26:20;11.88;;;7.47;;
28625;SDS011;18905;42.668;23.364;2023-05-19T07:28:46;12.88;;;6.80;;
28625;SDS011;18905;42.668;23.364;2023-05-19T07:31:12;14.65;;;7.63;;
28625;SDS011;18905;42.668;23.364;2023-05-19T07:33:37;20.98;;;7.07;;
28625;SDS011;18905;42.668;23.364;2023-05-19T07:36:03;14.70;;;7.00;;
28625;SDS011;18905;42.668;23.364;2023-05-19T07:38:29;13.02;;;7.57;;
28625;SDS011;18905;42.668;23.364;2023-05-19T07:40:58;11.82;;;7.00;;
28625;SDS011;18905;42.668;23.364;2023-05-19T07:43:24;13.45;;;7.85;;
28625;SDS011;18905;42.668;23.364;2023-05-19T07:45:49;11.30;;;7.05;;
28625;SDS011;18905;42.668;23.364;2023-05-19T07:48:15;15.20;;;7.13;;
28625;SDS011;18905;42.668;23.364;2023-05-19T07:50:42;13.73;;;7.57;;
28625;SDS011;18905;42.668;23.364;2023-05-19T07:53:08;11.35;;;7.30;;
28625;SDS011;18905;42.668;23.364;2023-05-19T07:55:33;12.27;;;8.00;;
28625;SDS011;18905;42.668;23.364;2023-05-19T07:57:58;21.30;;;9.00;;
28625;SDS011;18905;42.668;23.364;2023-05-19T08:00:24;17.02;;;8.95;;
28625;SDS011;18905;42.668;23.364;2023-05-19T08:02:50;18.40;;;9.23;;
28625;SDS011;18905;42.668;23.364;2023-05-19T08:05:16;23.27;;;9.40;;
28625;SDS011;18905;42.668;23.364;2023-05-19T08:07:42;16.52;;;9.73;;
28625;SDS011;18905;42.668;23.364;2023-05-19T08:10:07;22.60;;;9.55;;
28625;SDS011;18905;42.668;23.364;2023-05-19T08:12:33;16.35;;;9.13;;
28625;SDS011;18905;42.668;23.364;2023-05-19T08:14:59;22.95;;;9.50;;
28625;SDS011;18905;42.668;23.364;2023-05-19T08:17:24;19.08;;;9.68;;
28625;SDS011;18905;42.668;23.364;2023-05-19T08:19:50;17.77;;;9.50;;
28625;SDS011;18905;42.668;23.364;2023-05-19T08:22:15;14.95;;;9.00;;
28625;SDS011;18905;42.668;23.364;2023-05-19T08:24:41;16.02;;;9.95;;
28625;SDS011;18905;42.668;23.364;2023-05-19T08:27:07;20.67;;;9.90;;
28625;SDS011;18905;42.668;23.364;2023-05-19T08:29:32;18.50;;;9.52;;
28625;SDS011;18905;42.668;23.364;2023-05-19T08:31:58;17.25;;;9.40;;
28625;SDS011;18905;42.668;23.364;2023-05-19T08:34:24;17.48;;;9.20;;
28625;SDS011;18905;42.668;23.364;2023-05-19T08:36:49;16.42;;;9.65;;
28625;SDS011;18905;42.668;23.364;2023-05-19T08:39:15;17.92;;;9.68;;
28625;SDS011;18905;42.668;23.364;2023-05-19T08:41:42;17.83;;;9.50;;
28625;SDS011;18905;42.668;23.364;2023-05-19T08:44:08;15.00;;;10.05;;
28625;SDS011;18905;42.668;23.364;2023-05-19T08:46:34;16.50;;;10.05;;
28625;SDS011;18905;42.668;23.364;2023-05-19T08:49:08;19.02;;;9.93;;
28625;SDS011;18905;42.668;23.364;2023-05-19T08:51:38;18.80;;;10.45;;
28625;SDS011;18905;42.668;23.364;2023-05-19T08:54:28;14.30;;;9.68;;
28625;SDS011;18905;42.668;23.364;2023-05-19T08:56:59;23.42;;;9.73;;
28625;SDS011;18905;42.668;23.364;2023-05-19T08:59:26;15.73;;;9.45;;
28625;SDS011;18905;42.668;23.364;2023-05-19T09:01:51;19.00;;;9.57;;
28625;SDS011;18905;42.668;23.364;2023-05-19T09:04:19;18.83;;;9.30;;
28625;SDS011;18905;42.668;23.364;2023-05-19T09:06:44;16.35;;;9.23;;
28625;SDS011;18905;42.668;23.364;2023-05-19T09:09:10;13.85;;;9.88;;
28625;SDS011;18905;42.668;23.364;2023-05-19T09:11:36;15.43;;;9.38;;
28625;SDS011;18905;42.668;23.364;2023-05-19T09:14:02;20.90;;;10.85;;
28625;SDS011;18905;42.668;23.364;2023-05-19T09:16:28;17.45;;;9.77;;
28625;SDS011;18905;42.668;23.364;2023-05-19T09:18:55;12.80;;;9.77;;
28625;SDS011;18905;42.668;23.364;2023-05-19T09:21:28;16.98;;;10.25;;
28625;SDS011;18905;42.668;23.364;2023-05-19T09:24:03;15.68;;;10.40;;
28625;SDS011;18905;42.668;23.364;2023-05-19T09:26:40;15.63;;;9.70;;
28625;SDS011;18905;42.668;23.364;2023-05-19T09:29:16;14.18;;;10.10;;
28625;SDS011;18905;42.668;23.364;2023-05-19T09:31:51;20.02;;;10.05;;
28625;SDS011;18905;42.668;23.364;2023-05-19T09:34:20;16.00;;;9.32;;
28625;SDS011;18905;42.668;23.364;2023-05-19T09:36:46;21.38;;;11.27;;
28625;SDS011;18905;42.668;23.364;2023-05-19T09:39:19;14.43;;;10.77;;
28625;SDS011;18905;42.668;23.364;2023-05-19T09:41:46;16.48;;;10.23;;
28625;SDS011;18905;42.668;23.364;2023-05-19T09:44:21;14.70;;;9.82;;
28625;SDS011;18905;42.668;23.364;2023-05-19T09:46:48;16.30;;;10.27;;
28625;SDS011;18905;42.668;23.364;2023-05-19T09:49:19;16.77;;;10.38;;
28625;SDS011;18905;42.668;23.364;2023-05-19T09:51:44;21.40;;;10.15;;
28625;SDS011;18905;42.668;23.364;2023-05-19T09:54:13;22.33;;;10.93;;
28625;SDS011;18905;42.668;23.364;2023-05-19T09:56:40;16.25;;;9.85;;
28625;SDS011;18905;42.668;23.364;2023-05-19T09:59:05;14.15;;;9.98;;
28625;SDS011;18905;42.668;23.364;2023-05-19T10:01:31;17.60;;;10.40;;
28625;SDS011;18905;42.668;23.364;2023-05-19T10:04:01;32.63;;;10.80;;
28625;SDS011;18905;42.668;23.364;2023-05-19T10:06:28;18.88;;;10.55;;
28625;SDS011;18905;42.668;23.364;2023-05-19T10:08:54;18.17;;;10.85;;
28625;SDS011;18905;42.668;23.364;2023-05-19T10:11:21;17.83;;;9.50;;
28625;SDS011;18905;42.668;23.364;2023-05-19T10:13:49;17.83;;;10.15;;
28625;SDS011;18905;42.668;23.364;2023-05-19T10:16:15;14.93;;;10.13;;
28625;SDS011;18905;42.668;23.364;2023-05-19T10:18:42;16.00;;;9.90;;
28625;SDS011;18905;42.668;23.364;2023-05-19T10:21:07;17.60;;;10.98;;
28625;SDS011;18905;42.668;23.364;2023-05-19T10:23:33;19.48;;;10.63;;
28625;SDS011;18905;42.668;23.364;2023-05-19T10:26:00;13.40;;;9.23;;
28625;SDS011;18905;42.668;23.364;2023-05-19T10:28:38;17.40;;;9.73;;
28625;SDS011;18905;42.668;23.364;2023-05-19T10:31:08;15.88;;;9.48;;
28625;SDS011;18905;42.668;23.364;2023-05-19T10:36:35;25.50;;;10.60;;
28625;SDS011;18905;42.668;23.364;2023-05-19T10:39:10;17.25;;;9.90;;
28625;SDS011;18905;42.668;23.364;2023-05-19T10:47:41;14.57;;;9.27;;
28625;SDS011;18905;42.668;23.364;2023-05-19T10:50:08;17.35;;;9.70;;
28625;SDS011;18905;42.668;23.364;2023-05-19T10:52:37;18.40;;;10.30;;
28625;SDS011;18905;42.668;23.364;2023-05-19T10:55:07;15.07;;;9.45;;
28625;SDS011;18905;42.668;23.364;2023-05-19T10:57:34;13.43;;;9.35;;
28625;SDS011;18905;42.668;23.364;2023-05-19T11:00:03;14.55;;;9.65;;
28625;SDS011;18905;42.668;23.364;2023-05-19T11:02:49;13.73;;;9.07;;
28625;SDS011;18905;42.668;23.364;2023-05-19T11:05:24;16.13;;;9.60;;
28625;SDS011;18905;42.668;23.364;2023-05-19T11:07:56;14.38;;;9.20;;
28625;SDS011;18905;42.668;23.364;2023-05-19T11:10:29;17.90;;;9.18;;
28625;SDS011;18905;42.668;23.364;2023-05-19T11:12:55;15.50;;;9.43;;
28625;SDS011;18905;42.668;23.364;2023-05-19T11:15:22;17.05;;;9.05;;
28625;SDS011;18905;42.668;23.364;2023-05-19T11:17:51;15.73;;;9.70;;
28625;SDS011;18905;42.668;23.364;2023-05-19T11:23:24;19.02;;;9.75;;
28625;SDS011;18905;42.668;23.364;2023-05-19T11:25:47;15.40;;;9.30;;
28625;SDS011;18905;42.668;23.364;2023-05-19T11:28:16;18.48;;;9.68;;
28625;SDS011;18905;42.668;23.364;2023-05-19T11:30:49;24.95;;;10.32;;
28625;SDS011;18905;42.668;23.364;2023-05-19T11:33:17;14.93;;;9.27;;
28625;SDS011;18905;42.668;23.364;2023-05-19T11:35:47;21.02;;;8.68;;
28625;SDS011;18905;42.668;23.364;2023-05-19T11:38:15;18.15;;;9.68;;
28625;SDS011;18905;42.668;23.364;2023-05-19T11:40:42;17.40;;;10.27;;
28625;SDS011;18905;42.668;23.364;2023-05-19T11:43:08;15.98;;;10.23;;
28625;SDS011;18905;42.668;23.364;2023-05-19T11:45:34;34.42;;;13.88;;
28625;SDS011;18905;42.668;23.364;2023-05-19T11:48:00;17.80;;;9.95;;
28625;SDS011;18905;42.668;23.364;2023-05-19T11:50:26;21.55;;;11.38;;
28625;SDS011;18905;42.668;23.364;2023-05-19T11:52:52;22.35;;;11.98;;
28625;SDS011;18905;42.668;23.364;2023-05-19T11:55:19;22.75;;;11.18;;
28625;SDS011;18905;42.668;23.364;2023-05-19T11:58:02;20.08;;;11.00;;
28625;SDS011;18905;42.668;23.364;2023-05-19T12:00:33;17.35;;;11.88;;
28625;SDS011;18905;42.668;23.364;2023-05-19T12:03:03;14.55;;;9.38;;
28625;SDS011;18905;42.668;23.364;2023-05-19T12:05:29;17.55;;;9.05;;
28625;SDS011;18905;42.668;23.364;2023-05-19T12:07:55;13.45;;;9.00;;
28625;SDS011;18905;42.668;23.364;2023-05-19T12:10:28;15.55;;;8.90;;
28625;SDS011;18905;42.668;23.364;2023-05-19T12:12:55;17.40;;;7.93;;
28625;SDS011;18905;42.668;23.364;2023-05-19T12:15:22;10.35;;;7.40;;
28625;SDS011;18905;42.668;23.364;2023-05-19T12:17:58;13.35;;;6.93;;
28625;SDS011;18905;42.668;23.364;2023-05-19T12:20:25;20.60;;;14.35;;
28625;SDS011;18905;42.668;23.364;2023-05-19T12:22:53;10.90;;;7.38;;
28625;SDS011;18905;42.668;23.364;2023-05-19T12:25:20;15.73;;;7.53;;
28625;SDS011;18905;42.668;23.364;2023-05-19T12:27:46;14.13;;;8.40;;
28625;SDS011;18905;42.668;23.364;2023-05-19T12:30:13;18.38;;;8.50;;
28625;SDS011;18905;42.668;23.364;2023-05-19T12:32:39;15.48;;;8.32;;
28625;SDS011;18905;42.668;23.364;2023-05-19T12:35:04;15.20;;;8.10;;
28625;SDS011;18905;42.668;23.364;2023-05-19T12:37:31;13.38;;;8.00;;
28625;SDS011;18905;42.668;23.364;2023-05-19T12:39:58;12.32;;;7.95;;
28625;SDS011;18905;42.668;23.364;2023-05-19T12:42:28;14.07;;;7.35;;
28625;SDS011;18905;42.668;23.364;2023-05-19T12:44:59;19.90;;;7.97;;
28625;SDS011;18905;42.668;23.364;2023-05-19T12:47:30;13.30;;;8.05;;
28625;SDS011;18905;42.668;23.364;2023-05-19T12:52:31;13.98;;;8.52;;
28625;SDS011;18905;42.668;23.364;2023-05-19T12:55:00;13.07;;;7.05;;
28625;SDS011;18905;42.668;23.364;2023-05-19T13:00:05;13.02;;;7.10;;
28625;SDS011;18905;42.668;23.364;2023-05-19T13:02:35;14.23;;;6.90;;
28625;SDS011;18905;42.668;23.364;2023-05-19T13:05:18;15.68;;;6.47;;
28625;SDS011;18905;42.668;23.364;2023-05-19T13:08:05;12.07;;;7.55;;
28625;SDS011;18905;42.668;23.364;2023-05-19T13:10:32;8.95;;;5.32;;
28625;SDS011;18905;42.668;23.364;2023-05-19T13:12:59;10.05;;;6.30;;
28625;SDS011;18905;42.668;23.364;2023-05-19T13:15:25;9.68;;;5.68;;
28625;SDS011;18905;42.668;23.364;2023-05-19T13:17:52;14.88;;;6.40;;
28625;SDS011;18905;42.668;23.364;2023-05-19T13:20:18;8.85;;;5.55;;
28625;SDS011;18905;42.668;23.364;2023-05-19T13:22:45;10.57;;;6.38;;
28625;SDS011;18905;42.668;23.364;2023-05-19T13:25:11;8.55;;;6.07;;
28625;SDS011;18905;42.668;23.364;2023-05-19T13:27:36;9.77;;;5.82;;
28625;SDS011;18905;42.668;23.364;2023-05-19T13:30:02;8.95;;;5.95;;
28625;SDS011;18905;42.668;23.364;2023-05-19T13:32:28;8.63;;;5.63;;
28625;SDS011;18905;42.668;23.364;2023-05-19T13:34:54;9.40;;;6.10;;
28625;SDS011;18905;42.668;23.364;2023-05-19T13:37:19;8.90;;;6.30;;
28625;SDS011;18905;42.668;23.364;2023-05-19T13:39:45;10.70;;;6.65;;
28625;SDS011;18905;42.668;23.364;2023-05-19T13:42:10;11.73;;;7.13;;
28625;SDS011;18905;42.668;23.364;2023-05-19T13:44:35;10.02;;;6.90;;
28625;SDS011;18905;42.668;23.364;2023-05-19T13:47:01;9.90;;;7.30;;
28625;SDS011;18905;42.668;23.364;2023-05-19T13:49:26;10.95;;;6.97;;
28625;SDS011;18905;42.668;23.364;2023-05-19T13:51:54;11.25;;;7.10;;
28625;SDS011;18905;42.668;23.364;2023-05-19T13:54:21;12.50;;;7.53;;
28625;SDS011;18905;42.668;23.364;2023-05-19T13:56:47;14.27;;;7.50;;
28625;SDS011;18905;42.668;23.364;2023-05-19T13:59:12;12.57;;;7.75;;
28625;SDS011;18905;42.668;23.364;2023-05-19T14:01:38;9.93;;;7.10;;
28625;SDS011;18905;42.668;23.364;2023-05-19T14:04:03;10.65;;;7.75;;
28625;SDS011;18905;42.668;23.364;2023-05-19T14:06:29;16.45;;;8.45;;
28625;SDS011;18905;42.668;23.364;2023-05-19T14:08:54;13.27;;;7.78;;
28625;SDS011;18905;42.668;23.364;2023-05-19T14:11:20;11.85;;;8.00;;
28625;SDS011;18905;42.668;23.364;2023-05-19T14:13:49;15.60;;;7.85;;
28625;SDS011;18905;42.668;23.364;2023-05-19T14:16:15;12.63;;;7.47;;
28625;SDS011;18905;42.668;23.364;2023-05-19T14:18:41;15.32;;;7.65;;
28625;SDS011;18905;42.668;23.364;2023-05-19T14:21:06;13.93;;;7.95;;
28625;SDS011;18905;42.668;23.364;2023-05-19T14:23:32;15.35;;;8.60;;
28625;SDS011;18905;42.668;23.364;2023-05-19T14:25:57;11.18;;;7.00;;
28625;SDS011;18905;42.668;23.364;2023-05-19T14:28:23;12.27;;;7.57;;
28625;SDS011;18905;42.668;23.364;2023-05-19T14:30:48;10.13;;;7.43;;
28625;SDS011;18905;42.668;23.364;2023-05-19T14:33:14;12.48;;;7.70;;
28625;SDS011;18905;42.668;23.364;2023-05-19T14:35:40;14.45;;;7.60;;
28625;SDS011;18905;42.668;23.364;2023-05-19T14:38:05;12.93;;;7.20;;
28625;SDS011;18905;42.668;23.364;2023-05-19T14:40:31;31.15;;;20.88;;
28625;SDS011;18905;42.668;23.364;2023-05-19T14:42:56;12.07;;;8.02;;
28625;SDS011;18905;42.668;23.364;2023-05-19T14:45:22;14.20;;;8.32;;